Time;durP1;ratioP1;P1;durP2;ratioP2;P2;SDS_P1;SDS_P2;PMS_P1;PMS_P2;Temp;Humidity;BMP_temperature;BMP_pressure;BME280_temperature;BME280_humidity;BME280_pressure;Samples;Min_cycle;Max_cycle;Signal;HPM_P1;HPM_P2
2022/08/21 00:01:45;;;;;;;2.53;1.60;;;;;;;24.48;60.82;100410.75;5112619;28;20063;-78
2022/08/21 00:04:13;;;;;;;1.42;1.10;;;;;;;24.50;60.54;100418.78;5112604;28;20047;-78
2022/08/21 00:06:50;;;;;;;5.28;1.55;;;;;;;24.60;59.41;100429.31;5112312;28;20561;-79
2022/08/21 00:09:19;;;;;;;1.67;1.58;;;;;;;24.60;58.75;100418.13;5111948;28;20505;-78
2022/08/21 00:11:48;;;;;;;2.25;1.20;;;;;;;24.57;58.96;100424.47;5113345;28;20055;-79
2022/08/21 00:14:16;;;;;;;1.85;1.30;;;;;;;24.53;59.33;100423.59;5099319;28;20390;-79
2022/08/21 00:16:44;;;;;;;1.88;1.40;;;;;;;24.48;60.44;100429.56;5112922;28;20054;-79
2022/08/21 00:19:12;;;;;;;2.05;1.65;;;;;;;24.35;60.85;100424.19;5111397;28;20482;-79
2022/08/21 00:21:40;;;;;;;1.42;1.33;;;;;;;24.25;61.66;100420.03;5113005;28;20052;-79
2022/08/21 00:24:12;;;;;;;1.30;1.10;;;;;;;24.20;61.83;100428.78;5112771;28;20508;-79
2022/08/21 00:26:40;;;;;;;3.05;1.63;;;;;;;24.14;60.79;100419.91;5112480;28;20047;-79
2022/08/21 00:29:08;;;;;;;1.50;1.23;;;;;;;24.21;60.30;100418.41;5112827;28;20040;-79
2022/08/21 00:31:36;;;;;;;1.33;1.23;;;;;;;24.16;60.75;100416.75;5098753;28;20501;-78
2022/08/21 00:34:04;;;;;;;1.75;1.33;;;;;;;24.18;60.93;100419.16;5113254;28;20052;-79
2022/08/21 00:36:33;;;;;;;1.67;1.40;;;;;;;24.14;61.15;100419.91;5112782;28;20047;-79
2022/08/21 00:39:04;;;;;;;1.63;1.45;;;;;;;24.09;61.37;100414.63;5094407;28;20039;-79
2022/08/21 00:41:33;;;;;;;1.77;1.48;;;;;;;24.09;61.81;100411.06;5112222;28;20056;-79
2022/08/21 00:44:08;;;;;;;2.53;1.57;;;;;;;24.09;61.46;100417.44;5112667;28;20040;-79
2022/08/21 00:46:37;;;;;;;2.10;1.65;;;;;;;24.09;61.35;100414.63;5112062;28;20054;-79
2022/08/21 00:49:07;;;;;;;2.10;1.40;;;;;;;24.09;61.58;100411.84;5111837;28;20530;-78
2022/08/21 00:51:41;;;;;;;2.30;1.35;;;;;;;24.10;61.64;100402.28;5112169;28;20063;-79
2022/08/21 00:54:11;;;;;;;1.42;1.33;;;;;;;24.10;61.34;100410.66;5111693;28;20067;-78
2022/08/21 00:56:50;;;;;;;2.10;1.33;;;;;;;24.07;61.87;100407.78;5112610;28;20039;-79
2022/08/21 00:59:20;;;;;;;1.77;1.33;;;;;;;24.10;62.48;100402.28;5111538;28;20042;-78
2022/08/21 01:01:48;;;;;;;2.08;1.50;;;;;;;24.06;62.45;100398.59;5112512;28;20043;-78
2022/08/21 01:04:16;;;;;;;1.55;1.40;;;;;;;24.06;61.93;100398.59;5112363;28;20035;-78
2022/08/21 01:06:45;;;;;;;2.38;1.40;;;;;;;24.05;62.42;100399.78;5112213;28;20047;-78
2022/08/21 01:09:14;;;;;;;3.55;1.70;;;;;;;24.06;62.32;100404.19;5111290;28;20157;-79
2022/08/21 01:11:42;;;;;;;5.90;1.65;;;;;;;23.95;62.15;100404.03;5111590;28;20521;-78
2022/08/21 01:14:12;;;;;;;3.13;1.23;;;;;;;23.93;61.76;100402.78;5112313;28;20048;-78
2022/08/21 01:16:44;;;;;;;2.80;1.27;;;;;;;23.90;60.34;100404.34;5111889;28;20052;-78
2022/08/21 01:19:14;;;;;;;1.10;1.00;;;;;;;23.93;60.40;100398.00;5111529;28;20517;-78
2022/08/21 01:21:43;;;;;;;1.30;0.80;;;;;;;23.88;59.57;100406.72;5094230;28;20047;-78
2022/08/21 01:24:12;;;;;;;2.65;1.10;;;;;;;23.83;60.28;100399.47;5111189;28;20048;-78
2022/08/21 01:26:41;;;;;;;1.00;0.88;;;;;;;23.82;60.41;100405.44;5112554;28;20403;-78
2022/08/21 01:29:24;;;;;;;2.25;0.90;;;;;;;23.75;60.07;100406.94;5111525;28;20094;-79
2022/08/21 01:31:52;;;;;;;1.33;1.20;;;;;;;23.74;60.29;100402.53;5101481;28;20052;-78
2022/08/21 01:34:20;;;;;;;1.27;1.17;;;;;;;23.75;59.94;100398.53;5116647;28;20043;-78
2022/08/21 01:36:48;;;;;;;1.10;0.95;;;;;;;23.73;59.56;100388.94;5115888;28;20048;-78
2022/08/21 01:39:16;;;;;;;1.75;0.93;;;;;;;23.71;59.11;100388.50;5116149;28;20043;-78
2022/08/21 01:41:44;;;;;;;2.15;1.10;;;;;;;23.70;58.21;100390.47;5115307;28;20046;-78
2022/08/21 01:44:12;;;;;;;1.10;0.98;;;;;;;23.77;57.30;100389.78;5115493;28;20047;-78
2022/08/21 01:46:40;;;;;;;1.15;0.98;;;;;;;23.75;57.22;100392.97;5116215;28;20035;-78
2022/08/21 01:49:08;;;;;;;2.03;0.88;;;;;;;23.76;57.47;100382.59;5115461;28;20044;-79
2022/08/21 01:51:37;;;;;;;1.10;1.00;;;;;;;23.79;57.17;100381.84;5115096;28;20492;-78
2022/08/21 01:54:04;;;;;;;1.08;0.93;;;;;;;23.75;57.43;100380.97;5116032;28;20051;-79
2022/08/21 01:56:45;;;;;;;1.10;1.00;;;;;;;23.74;57.05;100370.97;5116026;28;20509;-78
2022/08/21 01:59:14;;;;;;;1.20;1.10;;;;;;;23.67;59.95;100380.06;5114831;28;20055;-79
2022/08/21 02:01:42;;;;;;;0.88;0.88;;;;;;;23.60;58.86;100366.78;5115040;28;20082;-78
2022/08/21 02:04:10;;;;;;;1.20;1.10;;;;;;;23.54;58.85;100370.25;5114945;28;20047;-78
2022/08/21 02:06:39;;;;;;;1.33;0.88;;;;;;;23.58;60.07;100371.13;5115457;28;20044;-78
2022/08/21 02:09:11;;;;;;;1.27;1.17;;;;;;;23.62;57.76;100375.59;5114431;28;20047;-78
2022/08/21 02:11:40;;;;;;;2.28;1.17;;;;;;;23.64;57.77;100364.06;5114576;28;20493;-78
2022/08/21 02:14:13;;;;;;;1.05;0.95;;;;;;;23.61;58.07;100370.41;5114452;28;20054;-78
2022/08/21 02:16:59;;;;;;;1.17;1.08;;;;;;;23.56;58.93;100363.13;5114535;28;20054;-78
2022/08/21 02:19:37;;;;;;;1.00;0.98;;;;;;;23.58;58.48;100362.75;5115532;28;20051;-79
2022/08/21 02:22:08;;;;;;;1.08;0.75;;;;;;;23.51;58.72;100365.44;5113968;28;20052;-79
2022/08/21 02:24:38;;;;;;;1.48;1.00;;;;;;;23.46;57.80;100363.78;5114433;28;20056;-78
2022/08/21 02:27:24;;;;;;;1.30;0.75;;;;;;;23.40;58.24;100359.69;5114449;28;20045;-78
2022/08/21 02:29:56;;;;;;;1.30;1.20;;;;;;;23.35;59.09;100364.41;5109335;28;20601;-79
2022/08/21 02:32:25;;;;;;;1.80;1.02;;;;;;;23.35;58.02;100367.19;5106718;28;20039;-79
2022/08/21 02:34:53;;;;;;;1.50;1.10;;;;;;;23.35;56.98;100352.41;5114217;28;20512;-78
2022/08/21 02:37:22;;;;;;;1.67;0.90;;;;;;;23.38;56.89;100360.06;5114253;28;20410;-78
2022/08/21 02:39:50;;;;;;;2.17;1.52;;;;;;;23.42;57.83;100360.13;5114187;28;20047;-78
2022/08/21 02:42:19;;;;;;;1.42;1.08;;;;;;;23.40;58.30;100354.13;5114680;28;20049;-78
2022/08/21 02:44:51;;;;;;;1.58;1.08;;;;;;;23.38;58.49;100356.44;5113298;28;20044;-78
2022/08/21 02:47:19;;;;;;;1.02;0.98;;;;;;;23.32;58.90;100353.19;5113701;28;20059;-78
2022/08/21 02:49:46;;;;;;;2.25;1.00;;;;;;;23.27;59.33;100350.66;5114643;28;20051;-78
2022/08/21 02:52:14;;;;;;;1.77;0.85;;;;;;;23.25;59.06;100350.25;5114003;28;20054;-78
2022/08/21 02:54:42;;;;;;;1.20;0.98;;;;;;;23.25;58.66;100344.66;5114796;28;20493;-79
2022/08/21 02:57:10;;;;;;;0.90;0.88;;;;;;;23.31;58.23;100348.78;5096536;28;20040;-78
2022/08/21 02:59:40;;;;;;;1.25;1.08;;;;;;;23.22;58.23;100349.78;5114830;28;20040;-78
2022/08/21 03:02:08;;;;;;;1.08;0.98;;;;;;;23.27;57.62;100347.88;5113993;28;20055;-78
2022/08/21 03:04:36;;;;;;;0.82;0.82;;;;;;;23.19;58.48;100349.72;5113281;28;20048;-78
2022/08/21 03:07:04;;;;;;;2.67;1.00;;;;;;;23.24;57.53;100341.06;5113297;28;20371;-79
2022/08/21 03:09:37;;;;;;;0.90;0.90;;;;;;;23.19;58.94;100352.53;5114515;28;20486;-79
2022/08/21 03:12:12;;;;;;;1.67;0.90;;;;;;;23.25;59.34;100347.44;5114322;28;20047;-78
2022/08/21 03:14:40;;;;;;;1.23;1.10;;;;;;;23.23;58.84;100342.25;5096062;28;20055;-78
2022/08/21 03:17:08;;;;;;;1.55;1.10;;;;;;;23.18;58.71;100350.91;5114159;28;20043;-78
2022/08/21 03:19:35;;;;;;;1.20;1.10;;;;;;;23.10;58.49;100347.19;5112567;28;20055;-78
2022/08/21 03:22:04;;;;;;;1.10;0.80;;;;;;;23.09;58.62;100351.16;5114163;28;20482;-79
2022/08/21 03:24:31;;;;;;;1.25;0.80;;;;;;;23.16;57.88;100356.06;5114204;28;20035;-79
2022/08/21 03:27:00;;;;;;;0.85;0.85;;;;;;;23.16;58.63;100348.50;5114308;28;20050;-78
2022/08/21 03:29:28;;;;;;;0.68;0.68;;;;;;;23.15;59.12;100348.84;5112614;28;20042;-78
2022/08/21 03:31:56;;;;;;;1.58;0.88;;;;;;;23.11;59.55;100353.59;5101056;28;20401;-78
2022/08/21 03:34:24;;;;;;;1.67;1.00;;;;;;;23.09;60.03;100351.97;5114040;28;20047;-78
2022/08/21 03:36:52;;;;;;;1.33;0.68;;;;;;;23.04;58.99;100355.09;5113196;28;20374;-78
2022/08/21 03:39:20;;;;;;;0.57;0.57;;;;;;;22.98;59.23;100353.78;5113147;28;20054;-78
2022/08/21 03:41:48;;;;;;;0.70;0.70;;;;;;;23.04;57.94;100351.47;5113030;28;20054;-78
2022/08/21 03:44:16;;;;;;;0.75;0.65;;;;;;;23.00;57.17;100348.63;5112401;28;20052;-78
2022/08/21 03:46:46;;;;;;;0.98;0.77;;;;;;;23.00;56.78;100345.81;5113389;28;20051;-78
2022/08/21 03:49:14;;;;;;;1.10;0.63;;;;;;;22.98;56.81;100356.56;5113738;28;20051;-79
2022/08/21 03:51:42;;;;;;;1.20;0.80;;;;;;;22.99;56.56;100340.63;5113658;28;20036;-78
2022/08/21 03:54:10;;;;;;;1.00;0.85;;;;;;;22.98;56.97;100342.63;5112777;28;20047;-78
2022/08/21 03:56:39;;;;;;;0.68;0.68;;;;;;;23.04;56.45;100343.91;5113210;28;20435;-78
2022/08/21 03:59:07;;;;;;;1.60;0.77;;;;;;;23.05;57.15;100351.09;5113134;28;20044;-78
2022/08/21 04:01:35;;;;;;;0.82;0.82;;;;;;;23.02;56.84;100346.25;5113485;28;20093;-78
2022/08/21 04:04:04;;;;;;;0.95;0.70;;;;;;;22.95;57.07;100351.72;5098159;28;20494;-78
2022/08/21 04:06:32;;;;;;;2.85;0.80;;;;;;;22.90;57.03;100346.44;5111844;28;20494;-78
2022/08/21 04:09:04;;;;;;;0.68;0.68;;;;;;;22.92;56.68;100352.47;5112432;28;20410;-78
2022/08/21 04:11:32;;;;;;;2.25;0.95;;;;;;;22.94;57.01;100352.91;5111936;28;20506;-79
2022/08/21 04:14:00;;;;;;;0.60;0.60;;;;;;;22.95;56.83;100346.13;5098000;28;20055;-78
2022/08/21 04:16:28;;;;;;;0.85;0.70;;;;;;;22.92;58.12;100347.69;5112450;28;20047;-78
2022/08/21 04:18:56;;;;;;;0.80;0.80;;;;;;;22.91;57.48;100353.63;5112215;28;20371;-78
2022/08/21 04:21:24;;;;;;;0.65;0.47;;;;;;;22.82;58.54;100349.09;5112817;28;20056;-78
2022/08/21 04:23:54;;;;;;;0.80;0.80;;;;;;;22.85;58.86;100350.34;5112767;28;20055;-78
2022/08/21 04:26:23;;;;;;;4.40;0.70;;;;;;;22.84;57.28;100356.28;5100923;28;20393;-78
2022/08/21 04:28:52;;;;;;;0.60;0.60;;;;;;;22.76;58.78;100347.78;5112083;28;20371;-78
2022/08/21 04:31:19;;;;;;;0.60;0.60;;;;;;;22.84;59.12;100353.50;5098513;28;20044;-78
2022/08/21 04:33:47;;;;;;;0.95;0.85;;;;;;;22.82;57.88;100360.25;5112013;28;20398;-78
2022/08/21 04:36:15;;;;;;;1.15;0.80;;;;;;;22.86;57.22;100359.53;5112805;28;20070;-78
2022/08/21 04:38:49;;;;;;;0.82;0.82;;;;;;;22.90;58.13;100350.03;5113004;28;20047;-78
2022/08/21 04:41:18;;;;;;;1.88;0.60;;;;;;;22.91;57.76;100351.66;5111235;28;20470;-77
2022/08/21 04:43:55;;;;;;;0.65;0.60;;;;;;;22.95;58.01;100357.28;5112800;28;20253;-78
2022/08/21 04:46:23;;;;;;;0.65;0.65;;;;;;;22.94;57.77;100352.91;5111888;28;20054;-78
2022/08/21 04:48:51;;;;;;;1.48;0.82;;;;;;;22.85;58.66;100358.72;5112141;28;20055;-78
2022/08/21 04:51:32;;;;;;;0.68;0.65;;;;;;;22.96;57.00;100347.75;5111849;28;20055;-78
2022/08/21 04:54:10;;;;;;;0.52;0.50;;;;;;;22.95;57.16;100357.28;5099234;28;20056;-78
2022/08/21 04:56:42;;;;;;;1.02;0.95;;;;;;;22.98;58.04;100345.41;5112556;28;20474;-78
2022/08/21 04:59:16;;;;;;;0.90;0.60;;;;;;;23.05;57.26;100359.47;5107894;28;20051;-79
2022/08/21 05:01:45;;;;;;;0.70;0.70;;;;;;;23.11;56.58;100357.16;5112178;28;20390;-77
2022/08/21 05:04:21;;;;;;;1.02;0.50;;;;;;;23.40;57.75;100352.09;5110830;28;20402;-74
2022/08/21 05:06:52;;;;;;;0.47;0.47;;;;;;;23.68;55.17;100358.50;5058978;28;20047;-75
2022/08/21 05:09:22;;;;;;;0.85;0.77;;;;;;;23.88;54.47;100357.25;5076296;28;20054;-74
2022/08/21 05:11:52;;;;;;;0.68;0.68;;;;;;;23.94;53.74;100346.53;5075468;28;20485;-75
2022/08/21 05:14:20;;;;;;;0.70;0.65;;;;;;;24.07;53.65;100349.09;5059917;28;20051;-74
2022/08/21 05:16:49;;;;;;;0.60;0.60;;;;;;;24.12;53.89;100354.38;5056394;28;20410;-75
2022/08/21 05:19:17;;;;;;;0.68;0.60;;;;;;;24.33;52.79;100359.44;5058413;28;20047;-76
2022/08/21 05:21:47;;;;;;;0.60;0.60;;;;;;;24.45;53.24;100371.56;5060808;28;20047;-76
2022/08/21 05:24:17;;;;;;;0.73;0.60;;;;;;;24.52;53.47;100366.06;5076713;28;20059;-76
2022/08/21 05:26:46;;;;;;;0.73;0.60;;;;;;;24.73;52.54;100365.50;5057794;28;20055;-76
2022/08/21 05:29:16;;;;;;;0.50;0.50;;;;;;;24.86;52.42;100368.03;5058790;28;20040;-76
2022/08/21 05:31:47;;;;;;;1.17;0.70;;;;;;;24.76;52.98;100361.13;5070663;28;20047;-76
2022/08/21 05:34:21;;;;;;;0.70;0.60;;;;;;;24.82;51.98;100363.22;5059358;28;20498;-76
2022/08/21 05:36:52;;;;;;;1.17;0.50;;;;;;;25.00;52.18;100371.00;5073301;28;20048;-74
2022/08/21 05:39:20;;;;;;;0.57;0.57;;;;;;;25.30;51.79;100366.47;5075288;28;20058;-74
2022/08/21 05:41:49;;;;;;;1.27;0.70;;;;;;;25.40;51.58;100368.56;5057032;28;20044;-74
2022/08/21 05:44:17;;;;;;;1.00;1.00;;;;;;;25.43;52.25;100367.78;5067465;28;20055;-75
2022/08/21 05:46:47;;;;;;;0.60;0.60;;;;;;;25.60;51.54;100357.94;5056981;28;20044;-75
2022/08/21 05:49:15;;;;;;;0.60;0.60;;;;;;;25.73;51.38;100366.84;5067279;28;20048;-74
2022/08/21 05:51:44;;;;;;;4.43;0.60;;;;;;;25.77;51.54;100362.03;5093392;28;20394;-74
2022/08/21 05:54:12;;;;;;;3.40;0.57;;;;;;;25.74;51.68;100365.66;5056539;28;20044;-74
2022/08/21 05:56:44;;;;;;;0.82;0.70;;;;;;;25.81;51.69;100376.09;5055374;28;20047;-74
2022/08/21 05:59:13;;;;;;;2.88;0.88;;;;;;;25.75;51.39;100366.44;5093122;28;20051;-74
2022/08/21 06:01:47;;;;;;;0.60;0.60;;;;;;;25.89;51.13;100374.13;5110415;28;20036;-74
2022/08/21 06:04:27;;;;;;;0.85;0.85;;;;;;;25.86;51.50;100372.13;5105320;28;20036;-74
2022/08/21 06:06:55;;;;;;;0.75;0.70;;;;;;;26.00;51.08;100366.59;5091777;28;20521;-74
2022/08/21 06:09:23;;;;;;;2.13;0.65;;;;;;;25.97;49.76;100378.59;5110437;28;20051;-74
2022/08/21 06:11:51;;;;;;;1.83;0.65;;;;;;;26.11;49.75;100371.47;5092945;28;20047;-74
2022/08/21 06:14:19;;;;;;;0.52;0.52;;;;;;;26.34;49.69;100379.59;5110328;28;20043;-74
2022/08/21 06:16:47;;;;;;;0.47;0.40;;;;;;;26.38;48.20;100382.41;5076965;28;20050;-74
2022/08/21 06:19:15;;;;;;;0.70;0.70;;;;;;;26.38;48.73;100380.44;5113647;28;20035;-74
2022/08/21 06:21:43;;;;;;;1.58;0.55;;;;;;;26.66;48.54;100378.13;5114253;28;20043;-74
2022/08/21 06:24:11;;;;;;;2.45;0.90;;;;;;;26.59;49.58;100378.09;5113562;28;20039;-74
2022/08/21 06:26:39;;;;;;;0.65;0.60;;;;;;;26.79;47.97;100384.97;5114631;28;20062;-74
2022/08/21 06:29:10;;;;;;;2.03;1.05;;;;;;;26.82;47.11;100391.78;5114992;28;20047;-74
2022/08/21 06:31:39;;;;;;;0.40;0.40;;;;;;;26.93;47.05;100381.44;5100656;28;20047;-74
2022/08/21 06:34:08;;;;;;;0.70;0.70;;;;;;;27.26;47.31;100387.09;5115119;28;20070;-74
2022/08/21 06:36:36;;;;;;;0.75;0.60;;;;;;;27.26;47.47;100392.69;5114895;28;20047;-74
2022/08/21 06:39:04;;;;;;;1.27;0.90;;;;;;;27.37;47.82;100392.72;5115007;28;20051;-74
2022/08/21 06:41:52;;;;;;;0.60;0.60;;;;;;;27.37;44.92;100393.50;5114913;28;20038;-74
2022/08/21 06:44:28;;;;;;;1.02;0.50;;;;;;;27.49;45.79;100391.50;5096577;28;20047;-75
2022/08/21 06:47:00;;;;;;;0.95;0.70;;;;;;;27.59;45.84;100392.72;5113920;28;20251;-74
2022/08/21 06:49:28;;;;;;;1.30;0.70;;;;;;;27.54;45.60;100384.66;5096423;28;20051;-74
2022/08/21 06:51:59;;;;;;;1.17;0.70;;;;;;;27.63;42.63;100388.72;5112537;28;20043;-75
2022/08/21 06:54:27;;;;;;;0.40;0.40;;;;;;;27.52;43.85;100393.53;5102259;28;20040;-75
2022/08/21 06:56:55;;;;;;;0.60;0.60;;;;;;;27.48;44.74;100392.72;5089113;28;20489;-74
2022/08/21 06:59:27;;;;;;;0.80;0.55;;;;;;;27.59;44.67;100392.72;5105285;28;20028;-75
2022/08/21 07:02:00;;;;;;;0.55;0.30;;;;;;;27.69;44.60;100397.56;5110794;28;20040;-76
2022/08/21 07:04:30;;;;;;;1.10;0.60;;;;;;;27.67;45.45;100408.41;5106285;28;20051;-75
2022/08/21 07:06:58;;;;;;;1.00;0.60;;;;;;;27.83;46.33;100395.91;5109584;28;20047;-75
2022/08/21 07:09:27;;;;;;;0.80;0.60;;;;;;;27.80;46.32;100399.56;5106032;28;20050;-75
2022/08/21 07:11:59;;;;;;;0.57;0.57;;;;;;;27.85;46.14;100397.13;5109239;28;20054;-75
2022/08/21 07:14:26;;;;;;;0.80;0.80;;;;;;;27.94;46.50;100396.69;5104526;28;20406;-75
2022/08/21 07:16:55;;;;;;;0.50;0.50;;;;;;;28.04;46.51;100395.06;5105218;28;20051;-75
2022/08/21 07:19:24;;;;;;;0.50;0.50;;;;;;;28.14;47.71;100390.63;5106195;28;20052;-75
2022/08/21 07:21:58;;;;;;;0.80;0.70;;;;;;;28.16;47.30;100391.81;5095963;28;20466;-75
2022/08/21 07:24:26;;;;;;;0.98;0.77;;;;;;;28.26;46.67;100392.22;5106979;28;20047;-75
2022/08/21 07:26:55;;;;;;;1.10;1.00;;;;;;;28.10;46.86;100393.44;5095047;28;20036;-75
2022/08/21 07:29:23;;;;;;;1.13;0.90;;;;;;;28.11;47.93;100397.06;5097948;28;20055;-75
2022/08/21 07:31:58;;;;;;;1.25;1.13;;;;;;;28.28;46.06;100398.25;5095410;28;20055;-75
2022/08/21 07:34:27;;;;;;;0.75;0.75;;;;;;;28.36;46.29;100399.03;5080634;28;20048;-75
2022/08/21 07:36:57;;;;;;;2.55;0.80;;;;;;;28.41;46.17;100399.41;5097701;28;20040;-74
2022/08/21 07:39:28;;;;;;;1.88;1.02;;;;;;;28.44;46.02;100406.22;5072630;28;20036;-75
2022/08/21 07:41:55;;;;;;;0.90;0.82;;;;;;;28.57;44.97;100407.38;5094711;28;20367;-75
2022/08/21 07:44:24;;;;;;;0.60;0.60;;;;;;;28.61;45.65;100404.56;5104470;28;20039;-74
2022/08/21 07:46:52;;;;;;;0.70;0.70;;;;;;;28.61;45.54;100407.38;5113174;28;20509;-74
2022/08/21 07:49:20;;;;;;;0.93;0.80;;;;;;;28.74;45.01;100398.44;5094759;28;20035;-75
2022/08/21 07:51:48;;;;;;;1.00;0.82;;;;;;;28.68;44.08;100392.44;5094878;28;20043;-74
2022/08/21 07:54:16;;;;;;;0.85;0.85;;;;;;;28.71;44.16;100391.63;5112429;28;20044;-74
2022/08/21 07:56:49;;;;;;;1.20;0.60;;;;;;;28.70;44.33;100402.06;5100609;28;20059;-75
2022/08/21 07:59:17;;;;;;;0.82;0.80;;;;;;;28.68;43.86;100393.25;5094492;28;20305;-74
2022/08/21 08:01:45;;;;;;;0.65;0.65;;;;;;;28.70;43.56;100388.00;5096453;28;20044;-74
2022/08/21 08:04:17;;;;;;;1.65;0.57;;;;;;;28.82;43.04;100392.38;5079939;28;20039;-74
2022/08/21 08:06:55;;;;;;;0.70;0.70;;;;;;;28.68;41.18;100390.44;5107513;28;20047;-74
2022/08/21 08:09:25;;;;;;;1.40;0.80;;;;;;;28.80;41.37;100388.38;5085214;28;20041;-74
2022/08/21 08:11:58;;;;;;;1.50;0.90;;;;;;;28.78;42.35;100385.16;5074278;28;20040;-74
2022/08/21 08:14:28;;;;;;;1.02;0.93;;;;;;;28.84;41.66;100381.50;5080092;28;20044;-74
2022/08/21 08:16:58;;;;;;;3.83;0.98;;;;;;;28.73;42.38;100388.41;5091696;28;20044;-73
2022/08/21 08:19:30;;;;;;;0.65;0.65;;;;;;;28.99;40.95;100381.44;5080231;28;20044;-74
2022/08/21 08:21:58;;;;;;;0.98;0.75;;;;;;;28.97;41.55;100389.47;5092148;28;20742;-74
2022/08/21 08:24:26;;;;;;;2.38;0.90;;;;;;;29.05;40.83;100379.78;5089915;28;20071;-74
2022/08/21 08:26:56;;;;;;;0.70;0.70;;;;;;;29.10;40.71;100373.72;5092314;28;20043;-74
2022/08/21 08:29:24;;;;;;;0.50;0.50;;;;;;;29.22;40.73;100375.22;5091346;28;20478;-74
2022/08/21 08:31:52;;;;;;;0.73;0.63;;;;;;;29.19;40.53;100378.06;5079120;28;20055;-74
2022/08/21 08:34:22;;;;;;;0.80;0.80;;;;;;;29.19;40.46;100366.81;5092212;28;20491;-74
2022/08/21 08:36:52;;;;;;;1.85;0.43;;;;;;;29.29;40.58;100374.38;5092204;28;20046;-74
2022/08/21 08:39:26;;;;;;;0.88;0.70;;;;;;;29.24;40.18;100375.59;5091635;28;20044;-74
2022/08/21 08:42:20;;;;;;;0.50;0.50;;;;;;;29.23;39.15;100365.56;5092106;28;20506;-74
2022/08/21 08:45:09;;;;;;;;;;;;;;;29.25;40.27;100367.97;5092357;28;20043;-74
2022/08/21 08:47:42;;;;;;;0.73;0.60;;;;;;;29.26;40.57;100360.31;5092057;28;19920;-74
2022/08/21 08:50:28;;;;;;;1.10;0.70;;;;;;;29.36;41.24;100370.69;5090708;28;20047;-74
2022/08/21 08:53:05;;;;;;;0.68;0.60;;;;;;;29.37;40.72;100363.81;5092129;28;20052;-74
2022/08/21 08:55:42;;;;;;;2.28;0.60;;;;;;;29.48;40.44;100364.56;5090755;28;20394;-74
2022/08/21 08:58:27;;;;;;;0.90;0.70;;;;;;;29.50;39.29;100361.34;5091848;28;20044;-74
2022/08/21 09:00:55;;;;;;;2.25;0.70;;;;;;;29.57;40.22;100366.13;5090817;28;20044;-74
2022/08/21 09:03:25;;;;;;;1.75;0.65;;;;;;;29.62;39.97;100357.22;5091655;28;20044;-74
2022/08/21 09:06:02;;;;;;;1.95;0.90;;;;;;;29.65;40.07;100367.63;5090603;28;20407;-74
2022/08/21 09:08:51;;;;;;;0.98;0.60;;;;;;;29.66;39.44;100360.00;5093310;28;20144;-74
2022/08/21 09:11:53;;;;;;;0.90;0.80;;;;;;;29.78;38.93;100362.28;5112097;28;20048;-74
2022/08/21 09:14:30;;;;;;;0.90;0.88;;;;;;;29.59;38.86;100355.22;5086037;28;20047;-74
2022/08/21 09:17:13;;;;;;;2.08;0.80;;;;;;;29.75;39.55;100344.19;5111921;28;20054;-74
2022/08/21 09:19:54;;;;;;;0.85;0.80;;;;;;;29.77;39.55;100347.38;5112059;28;20490;-74
2022/08/21 09:22:37;;;;;;;0.68;0.65;;;;;;;29.94;38.93;100347.59;5093048;28;20059;-74
2022/08/21 09:25:34;;;;;;;1.67;0.67;;;;;;;29.91;38.72;100351.28;5111777;28;20047;-74
2022/08/21 09:28:08;;;;;;;0.80;0.80;;;;;;;30.06;38.40;100349.09;5105772;28;20478;-74
2022/08/21 09:30:36;;;;;;;1.60;0.85;;;;;;;30.08;38.81;100348.63;5101055;28;20047;-74
2022/08/21 09:33:04;;;;;;;1.58;0.80;;;;;;;30.19;38.39;100331.63;5108675;28;20043;-74
2022/08/21 09:35:35;;;;;;;0.70;0.70;;;;;;;30.22;39.04;100334.41;5112000;28;20055;-74
2022/08/21 09:38:24;;;;;;;1.27;0.88;;;;;;;30.16;38.48;100325.59;5111242;28;20047;-74
2022/08/21 09:41:08;;;;;;;0.93;0.73;;;;;;;30.35;39.20;100331.03;5102741;28;20050;-74
2022/08/21 09:43:37;;;;;;;0.80;0.70;;;;;;;30.27;39.01;100330.31;5111597;28;20040;-74
2022/08/21 09:46:19;;;;;;;0.90;0.68;;;;;;;30.13;38.47;100331.28;5111494;28;20043;-74
2022/08/21 09:48:50;;;;;;;0.80;0.80;;;;;;;30.28;39.46;100329.88;5111403;28;20058;-74
2022/08/21 09:51:25;;;;;;;1.17;0.80;;;;;;;30.41;39.25;100335.75;5111348;28;20043;-74
2022/08/21 09:54:15;;;;;;;0.98;0.90;;;;;;;30.60;39.02;100327.03;5101738;28;20046;-74
2022/08/21 09:59:45;;;;;;;1.35;0.80;;;;;;;30.54;39.38;100338.03;5115296;28;20047;-74
2022/08/21 10:02:24;;;;;;;0.80;0.77;;;;;;;30.68;38.81;100328.53;5115342;28;20048;-74
2022/08/21 10:04:56;;;;;;;0.88;0.80;;;;;;;30.76;38.07;100326.44;5115361;28;20116;-75
2022/08/21 10:07:32;;;;;;;1.52;1.42;;;;;;;30.84;39.60;100322.28;5114866;28;20057;-74
2022/08/21 10:10:18;;;;;;;1.65;1.00;;;;;;;30.94;38.47;100323.34;5115226;28;20044;-74
2022/08/21 10:13:20;;;;;;;2.13;0.85;;;;;;;31.27;38.87;100322.81;5114946;28;20039;-74
2022/08/21 10:16:17;;;;;;;1.70;0.70;;;;;;;31.28;38.77;100322.38;5115185;28;20051;-74
2022/08/21 10:19:04;;;;;;;1.40;0.95;;;;;;;31.22;39.18;100324.06;5115107;28;20056;-74
2022/08/21 10:22:04;;;;;;;4.35;1.02;;;;;;;31.30;38.20;100313.47;5097063;28;20058;-74
2022/08/21 10:25:10;;;;;;;1.63;1.10;;;;;;;31.47;39.05;100311.56;5101519;28;20057;-74
2022/08/21 10:28:04;;;;;;;2.20;1.40;;;;;;;31.47;39.28;100311.56;5114944;28;20054;-75
2022/08/21 10:30:52;;;;;;;1.70;1.20;;;;;;;31.46;38.34;100312.78;5104069;28;20048;-75
2022/08/21 10:33:30;;;;;;;1.30;1.20;;;;;;;31.31;37.46;100304.56;5111903;28;20039;-74
2022/08/21 10:36:20;;;;;;;0.80;0.80;;;;;;;31.46;37.31;100307.13;5108663;28;20052;-74
2022/08/21 10:39:10;;;;;;;0.90;0.90;;;;;;;31.63;36.68;100308.81;5102448;28;20043;-74
2022/08/21 10:42:35;;;;;;;1.52;1.30;;;;;;;31.88;36.39;100310.41;5114328;28;20036;-75
2022/08/21 10:45:33;;;;;;;0.50;0.50;;;;;;;31.95;35.37;100309.44;5114627;28;20058;-74
2022/08/21 10:48:06;;;;;;;1.20;1.13;;;;;;;31.79;35.47;100301.66;5095706;28;20048;-75
2022/08/21 10:51:09;;;;;;;1.00;0.90;;;;;;;32.16;35.53;100298.91;5114372;28;20055;-75
2022/08/21 10:53:48;;;;;;;0.80;0.80;;;;;;;32.25;36.80;100296.28;5081393;28;20063;-75
2022/08/21 10:56:32;;;;;;;1.88;1.40;;;;;;;32.40;36.21;100299.63;5110966;28;20035;-75
2022/08/21 10:59:19;;;;;;;;;;;;;;;32.48;35.94;100299.44;5112202;28;20035;-74
2022/08/21 11:02:03;;;;;;;4.43;1.20;;;;;;;32.44;35.29;100297.50;5094364;27;19924;-74
2022/08/21 11:04:49;;;;;;;0.88;0.82;;;;;;;32.51;35.19;100293.72;5096597;27;20040;-74
2022/08/21 11:07:43;;;;;;;0.80;0.70;;;;;;;32.43;32.23;100295.13;5134934;27;20051;-74
2022/08/21 11:10:26;;;;;;;1.23;1.13;;;;;;;32.61;34.82;100297.53;5134558;27;20093;-75
2022/08/21 11:13:23;;;;;;;0.60;0.60;;;;;;;32.56;33.20;100289.56;5109904;27;20044;-74
2022/08/21 11:16:34;;;;;;;0.80;0.80;;;;;;;32.49;34.10;100281.25;5089871;28;20051;-74
2022/08/21 11:19:28;;;;;;;2.10;0.98;;;;;;;32.80;34.26;100269.56;5110564;28;20044;-74
2022/08/21 11:22:26;;;;;;;2.22;1.00;;;;;;;32.88;32.33;100270.19;5111490;28;20057;-74
2022/08/21 11:25:07;;;;;;;0.80;0.80;;;;;;;32.73;35.13;100270.53;5053871;28;20044;-74
2022/08/21 11:27:57;;;;;;;0.98;0.77;;;;;;;32.73;35.00;100253.53;5113239;28;20050;-74
2022/08/21 11:30:50;;;;;;;0.73;0.73;;;;;;;32.82;35.14;100258.59;5110780;28;20458;-74
2022/08/21 11:33:38;;;;;;;0.80;0.80;;;;;;;32.83;31.74;100252.50;5102914;28;20380;-74
2022/08/21 11:36:25;;;;;;;1.25;0.82;;;;;;;32.85;31.90;100260.56;5093273;28;20055;-74
2022/08/21 11:39:16;;;;;;;0.80;0.50;;;;;;;32.81;30.50;100259.84;5110202;28;20085;-74
2022/08/21 11:42:09;;;;;;;2.08;0.93;;;;;;;32.91;32.48;100253.09;5107724;28;20039;-74
2022/08/21 11:44:53;;;;;;;0.40;0.40;;;;;;;32.96;33.86;100244.09;5069166;28;20059;-75
2022/08/21 11:47:37;;;;;;;0.60;0.60;;;;;;;32.97;31.20;100254.19;5104598;28;20055;-75
2022/08/21 11:50:20;;;;;;;0.40;0.40;;;;;;;33.11;29.95;100250.19;5076422;28;20398;-75
2022/08/21 11:53:56;;;;;;;0.40;0.40;;;;;;;33.30;30.18;100249.69;5111944;28;20389;-75
2022/08/21 11:56:30;;;;;;;0.95;0.90;;;;;;;33.26;31.45;100246.19;5072077;28;20375;-76
2022/08/21 11:59:20;;;;;;;1.25;0.80;;;;;;;33.33;32.62;100255.25;5107377;28;20047;-76
2022/08/21 12:01:50;;;;;;;0.80;0.77;;;;;;;33.32;32.30;100252.91;5091892;28;20050;-76